Carriere, Mississippi
Current Conditions -  °F | °C
As of 11:53 AM on Thursday 18 Dec 2014 (Local Time) from KASD Reporting Station
Few Clouds Few Clouds  
Wind Chill: 66°   Ceiling: Unl
Heat Index: 66°   Visibility: 10mi
Dew Point: 48°   Wind: 9mph
Humidity: 52%   Direction: 160°SSE
Pressure: 30.14"   Gusts: NA
Location:  30.62°N, 89.65°W
Report Text: KASD 181753Z AUTO 16008KT 10SM FEW110 19/09 A3014 RMK AO2 SLP206 T01890089 10189 20061 58021
Loading
Personal Weather Stations






























Interactive Weather Map New forecast layout! Learn more

10-Day Weather Forecast

Advertisements
Track Severe Weather on mobile